createdAt,value
2023-04-27T06:21:10.638Z,8.23
2023-04-27T06:31:10.762Z,8.05
2023-04-27T06:41:10.781Z,6.99
2023-04-27T06:51:10.642Z,6.74
2023-04-27T07:01:10.581Z,7.99
2023-04-27T07:11:10.595Z,7.58
2023-04-27T07:21:10.865Z,9.08
2023-04-27T07:31:11.130Z,7.81
2023-04-27T07:41:11.170Z,7.05
2023-04-27T07:51:11.230Z,3.79
2023-04-27T08:01:11.328Z,5.11
2023-04-27T08:11:11.383Z,7.39
2023-04-27T08:21:11.743Z,7.18
2023-04-27T08:31:12.022Z,6.81
2023-04-27T08:41:21.210Z,5.25
2023-04-27T08:51:11.952Z,6.12
2023-04-27T09:01:11.792Z,0.60
2023-04-27T09:11:11.964Z,0.00
2023-04-27T09:21:12.144Z,0.00
2023-04-27T09:31:12.061Z,2.78
2023-04-27T09:41:11.962Z,0.00
2023-04-27T09:51:11.887Z,0.00
2023-04-27T10:01:12.011Z,0.00
2023-04-27T10:11:11.950Z,0.00
2023-04-27T10:21:11.853Z,0.00
2023-04-27T10:31:12.259Z,0.00
2023-04-27T10:41:12.162Z,0.00
2023-04-27T10:51:12.126Z,0.00
2023-04-27T11:01:12.416Z,0.00
2023-04-27T11:11:13.421Z,0.00
2023-04-27T11:21:12.354Z,0.00
2023-04-27T11:31:12.370Z,0.00
2023-04-27T11:41:12.567Z,0.00
2023-04-27T11:51:12.334Z,0.00
2023-04-27T12:01:12.268Z,0.00
2023-04-27T12:11:12.414Z,0.00
2023-04-27T12:21:12.398Z,0.00
2023-04-27T12:31:12.402Z,0.00
2023-04-27T12:41:12.270Z,0.00
2023-04-27T12:51:12.392Z,0.00
2023-04-27T13:01:12.595Z,0.00
2023-04-27T13:11:12.526Z,0.00
2023-04-27T13:21:12.178Z,0.00
2023-04-27T13:31:12.141Z,0.00
2023-04-27T13:41:12.184Z,0.00
2023-04-27T13:51:12.384Z,0.00
2023-04-27T14:01:12.365Z,0.00
2023-04-27T14:11:12.198Z,0.00
2023-04-27T14:21:12.225Z,0.00
2023-04-27T14:31:12.345Z,0.00
2023-04-27T14:41:12.426Z,0.00
2023-04-27T14:51:12.506Z,0.00
2023-04-27T15:01:12.381Z,0.00
2023-04-27T15:11:12.432Z,0.00
2023-04-27T15:21:12.341Z,0.00
2023-04-27T15:31:12.331Z,0.00
2023-04-27T15:41:12.414Z,0.00
2023-04-27T15:51:12.456Z,0.00
2023-04-27T16:01:12.473Z,0.00
2023-04-27T16:11:12.584Z,0.00
2023-04-27T16:21:12.456Z,0.00
2023-04-27T16:31:12.519Z,0.00
2023-04-27T16:41:12.446Z,3.92
2023-04-27T16:51:12.619Z,3.72
2023-04-27T17:01:12.761Z,0.38
2023-04-27T17:11:12.480Z,0.00
2023-04-27T17:21:12.542Z,0.00
2023-04-27T17:31:12.661Z,0.00
2023-04-27T17:41:12.588Z,4.40
2023-04-27T17:51:12.517Z,6.32
2023-04-27T18:01:12.601Z,5.35
2023-04-27T18:11:12.576Z,2.47
2023-04-27T18:21:12.743Z,1.97
2023-04-27T18:31:12.800Z,0.49
2023-04-27T18:41:12.554Z,0.00
2023-04-27T18:51:12.634Z,0.00
2023-04-27T19:01:13.257Z,0.00
2023-04-27T19:11:12.640Z,0.00
2023-04-27T19:21:13.009Z,0.00
